createdAt,value
2023-04-26T00:01:37.521Z,13.95
2023-04-26T00:04:05.061Z,13.55
2023-04-26T00:06:32.537Z,19.10
2023-04-26T00:08:59.736Z,13.52
2023-04-26T00:11:26.886Z,12.07
2023-04-26T00:13:54.414Z,15.55
2023-04-26T00:16:21.623Z,12.98
2023-04-26T00:18:49.279Z,19.80
2023-04-26T00:21:16.766Z,12.90
2023-04-26T00:23:43.938Z,22.10
2023-04-26T00:26:11.143Z,14.27
2023-04-26T00:28:38.354Z,14.63
2023-04-26T00:31:05.607Z,13.15
2023-04-26T00:33:32.857Z,15.10
2023-04-26T00:36:00.034Z,12.90
2023-04-26T00:38:27.221Z,14.82
2023-04-26T00:40:54.400Z,14.88
2023-04-26T00:43:21.587Z,14.60
2023-04-26T00:45:49.866Z,16.80
2023-04-26T00:48:18.524Z,14.93
2023-04-26T00:50:47.626Z,16.35
2023-04-26T00:53:18.090Z,16.48
2023-04-26T00:55:45.575Z,14.15
2023-04-26T00:58:12.769Z,18.08
2023-04-26T01:00:40.255Z,14.95
2023-04-26T01:03:07.614Z,14.45
2023-04-26T01:05:36.697Z,20.38
2023-04-26T01:08:04.947Z,15.95
2023-04-26T01:10:34.813Z,14.43
2023-04-26T01:13:03.599Z,14.70
2023-04-26T01:15:30.934Z,13.75
2023-04-26T01:17:58.121Z,13.88
2023-04-26T01:20:26.150Z,18.35
2023-04-26T01:22:53.299Z,14.95
2023-04-26T01:25:21.430Z,19.08
2023-04-26T01:27:48.821Z,15.77
2023-04-26T01:30:16.049Z,16.40
2023-04-26T01:32:43.219Z,12.38
2023-04-26T01:35:10.538Z,14.93
2023-04-26T01:37:37.718Z,19.98
2023-04-26T01:40:08.449Z,14.98
2023-04-26T01:42:35.801Z,13.77
2023-04-26T01:45:03.700Z,16.25
2023-04-26T01:47:31.036Z,15.38
2023-04-26T01:49:58.255Z,15.40
2023-04-26T01:52:25.446Z,14.13
2023-04-26T01:54:52.723Z,14.68
2023-04-26T01:57:19.909Z,13.00
2023-04-26T01:59:47.033Z,16.13
2023-04-26T02:02:17.288Z,16.40
2023-04-26T02:04:44.728Z,21.17
2023-04-26T02:07:11.917Z,12.45
2023-04-26T02:09:39.089Z,17.38
2023-04-26T02:12:06.510Z,20.80
2023-04-26T02:14:33.750Z,33.72
2023-04-26T02:17:01.298Z,23.38
2023-04-26T02:19:29.635Z,16.55
2023-04-26T02:21:58.422Z,16.45
2023-04-26T02:24:26.105Z,16.77
2023-04-26T02:26:54.534Z,14.02
2023-04-26T02:29:32.718Z,13.48
2023-04-26T02:32:09.114Z,16.75
2023-04-26T02:34:36.594Z,17.73
2023-04-26T02:37:04.232Z,16.92
2023-04-26T02:39:31.594Z,16.48
2023-04-26T02:41:59.423Z,14.60
2023-04-26T02:44:30.965Z,22.08
2023-04-26T02:46:58.361Z,15.18
2023-04-26T02:49:25.963Z,14.13
2023-04-26T02:51:53.252Z,16.55
2023-04-26T02:54:20.540Z,20.13
2023-04-26T02:56:47.735Z,20.80
2023-04-26T02:59:15.020Z,14.93
2023-04-26T03:01:42.238Z,21.48
2023-04-26T03:04:09.777Z,19.02
2023-04-26T03:06:37.232Z,13.40
2023-04-26T03:09:05.690Z,18.77
2023-04-26T03:11:33.084Z,18.77
2023-04-26T03:14:00.310Z,24.80
2023-04-26T03:16:28.502Z,15.68
2023-04-26T03:18:55.883Z,16.77
2023-04-26T03:21:23.062Z,15.32
2023-04-26T03:23:50.294Z,15.40
2023-04-26T03:26:17.515Z,13.45
2023-04-26T03:28:44.690Z,20.67
2023-04-26T03:31:11.869Z,17.40
2023-04-26T03:33:39.125Z,15.27
2023-04-26T03:36:06.971Z,18.45
2023-04-26T03:38:34.152Z,17.88
2023-04-26T03:41:01.482Z,15.93
2023-04-26T03:43:28.675Z,14.25
2023-04-26T03:45:55.920Z,17.15
2023-04-26T03:48:23.151Z,23.92
2023-04-26T03:50:50.419Z,17.33
2023-04-26T03:53:17.762Z,19.90
2023-04-26T03:55:45.391Z,18.67
2023-04-26T03:58:12.644Z,19.27
2023-04-26T04:00:43.586Z,18.73
2023-04-26T04:03:11.200Z,17.90
2023-04-26T04:05:38.645Z,14.07
2023-04-26T04:08:05.985Z,14.10
2023-04-26T04:10:33.340Z,20.23
2023-04-26T04:13:00.681Z,20.48
2023-04-26T04:15:27.889Z,19.60
2023-04-26T04:17:55.288Z,18.08
2023-04-26T04:20:22.738Z,16.63
2023-04-26T04:22:50.012Z,20.42
2023-04-26T04:25:17.653Z,16.15
2023-04-26T04:27:45.204Z,15.15
2023-04-26T04:30:12.731Z,15.00
2023-04-26T04:32:40.489Z,23.75
2023-04-26T04:35:08.602Z,20.73
2023-04-26T04:37:35.798Z,24.38
2023-04-26T04:40:03.224Z,19.48
2023-04-26T04:42:30.427Z,16.38
2023-04-26T04:44:59.789Z,21.08
2023-04-26T04:47:26.951Z,22.33
2023-04-26T04:49:54.197Z,19.50
2023-04-26T04:52:21.795Z,17.50
2023-04-26T04:54:49.126Z,18.85
2023-04-26T04:57:16.820Z,17.25
2023-04-26T04:59:44.069Z,16.08
2023-04-26T05:02:11.337Z,19.00
2023-04-26T05:04:41.676Z,22.85
2023-04-26T05:07:09.503Z,19.15
2023-04-26T05:09:37.177Z,18.85
2023-04-26T05:12:04.692Z,17.75
2023-04-26T05:14:31.954Z,21.60
2023-04-26T05:16:59.531Z,23.48
2023-04-26T05:19:26.748Z,17.80
2023-04-26T05:21:53.900Z,16.27
2023-04-26T05:24:21.281Z,15.85
2023-04-26T05:26:48.436Z,15.73
2023-04-26T05:29:15.621Z,19.17
2023-04-26T05:31:42.809Z,25.67
2023-04-26T05:34:10.122Z,17.48
2023-04-26T05:36:37.411Z,25.17
2023-04-26T05:39:06.160Z,19.33
2023-04-26T05:41:33.323Z,14.30
2023-04-26T05:44:00.454Z,13.10
2023-04-26T05:46:27.758Z,18.45
2023-04-26T05:48:55.202Z,20.38
2023-04-26T05:51:22.693Z,16.80
2023-04-26T05:53:50.026Z,16.50
2023-04-26T05:56:17.415Z,14.30
2023-04-26T05:58:44.673Z,14.13
2023-04-26T06:01:12.384Z,22.30
2023-04-26T06:03:39.710Z,19.50
2023-04-26T06:06:07.880Z,14.55
2023-04-26T06:08:35.711Z,17.45
2023-04-26T06:11:02.875Z,13.15
2023-04-26T06:13:30.044Z,17.83
2023-04-26T06:15:59.765Z,14.27
2023-04-26T06:18:26.971Z,16.10
2023-04-26T06:20:54.112Z,19.40
2023-04-26T06:23:21.348Z,26.70
2023-04-26T06:25:49.160Z,19.92
2023-04-26T06:28:16.361Z,15.18
2023-04-26T06:30:43.689Z,16.65
2023-04-26T06:33:10.908Z,15.60
2023-04-26T06:35:42.023Z,23.08
2023-04-26T06:38:09.524Z,20.65
2023-04-26T06:40:39.504Z,13.90
2023-04-26T06:43:06.674Z,18.05
2023-04-26T06:45:33.812Z,14.45
2023-04-26T06:48:01.992Z,15.90
2023-04-26T06:50:29.170Z,17.85
2023-04-26T06:52:56.380Z,17.27
2023-04-26T06:55:24.040Z,16.08
2023-04-26T06:57:51.327Z,11.48
2023-04-26T07:00:18.989Z,21.88
2023-04-26T07:02:46.375Z,16.52
2023-04-26T07:05:15.230Z,18.50
2023-04-26T07:07:42.548Z,13.73
2023-04-26T07:10:10.247Z,16.05
2023-04-26T07:12:37.500Z,15.15
2023-04-26T07:15:06.676Z,16.30
2023-04-26T07:17:33.886Z,15.82
2023-04-26T07:20:01.151Z,19.55
2023-04-26T07:22:28.354Z,16.55
2023-04-26T07:24:55.821Z,20.52
2023-04-26T07:27:23.727Z,19.00
2023-04-26T07:29:55.848Z,24.00
2023-04-26T07:32:23.350Z,15.67
2023-04-26T07:34:50.689Z,13.15
2023-04-26T07:37:17.850Z,16.17
2023-04-26T07:39:45.028Z,15.68
2023-04-26T07:42:12.199Z,16.60
2023-04-26T07:44:39.422Z,12.07
2023-04-26T07:47:13.504Z,12.95
2023-04-26T07:49:41.162Z,12.05
2023-04-26T07:52:09.190Z,14.48
2023-04-26T07:54:36.844Z,12.13
2023-04-26T07:57:04.015Z,12.30
2023-04-26T07:59:31.493Z,14.73
2023-04-26T08:01:58.732Z,13.13
2023-04-26T08:04:34.454Z,12.43
2023-04-26T08:07:02.170Z,12.00
2023-04-26T08:09:30.683Z,12.43
2023-04-26T08:11:58.055Z,11.45
2023-04-26T08:14:25.550Z,13.57
2023-04-26T08:16:53.137Z,21.85
2023-04-26T08:19:20.381Z,13.40
2023-04-26T08:21:47.521Z,11.75
2023-04-26T08:24:14.682Z,12.27
2023-04-26T08:26:41.849Z,14.88
2023-04-26T08:29:09.012Z,13.20
2023-04-26T08:31:36.193Z,12.30
2023-04-26T08:34:03.426Z,11.48
2023-04-26T08:36:32.382Z,6.13
2023-04-26T08:38:59.807Z,11.18
2023-04-26T08:41:27.605Z,11.98
2023-04-26T08:43:56.112Z,8.70
2023-04-26T08:46:26.717Z,12.23
2023-04-26T08:49:22.487Z,8.80
2023-04-26T08:51:51.402Z,21.35
2023-04-26T08:54:20.145Z,10.23
2023-04-26T08:56:47.827Z,7.13
2023-04-26T08:59:15.619Z,6.07
2023-04-26T09:01:44.194Z,9.13
2023-04-26T09:04:13.027Z,12.18
2023-04-26T09:06:41.177Z,12.05
2023-04-26T09:09:13.617Z,12.20
2023-04-26T09:11:59.990Z,10.88
2023-04-26T09:14:27.600Z,8.63
2023-04-26T09:16:55.160Z,6.80
2023-04-26T09:19:44.814Z,10.63
2023-04-26T09:22:11.988Z,10.57
2023-04-26T09:24:52.119Z,12.10
2023-04-26T09:27:19.824Z,11.45
2023-04-26T09:30:18.735Z,9.40
2023-04-26T09:32:53.524Z,9.63
2023-04-26T09:35:41.696Z,11.95
2023-04-26T09:38:16.512Z,8.45
2023-04-26T09:40:47.186Z,13.15
2023-04-26T09:43:17.715Z,13.73
2023-04-26T09:45:53.092Z,18.13
2023-04-26T09:48:34.283Z,10.68
2023-04-26T09:51:04.389Z,10.98
2023-04-26T09:53:46.531Z,14.35
2023-04-26T09:56:19.784Z,10.05
2023-04-26T09:58:46.874Z,10.02
2023-04-26T10:01:19.660Z,8.18
2023-04-26T10:03:47.491Z,9.77
2023-04-26T10:06:18.790Z,9.07
2023-04-26T10:08:45.966Z,9.88
2023-04-26T10:11:13.893Z,7.03
2023-04-26T10:13:42.922Z,10.40
2023-04-26T10:16:10.478Z,8.60
2023-04-26T10:18:38.030Z,6.38
2023-04-26T10:21:16.260Z,9.05
2023-04-26T10:23:44.524Z,7.95
2023-04-26T10:26:54.295Z,10.20
2023-04-26T10:29:23.562Z,6.78
2023-04-26T10:32:03.374Z,9.75
2023-04-26T10:34:33.422Z,8.88
2023-04-26T10:37:17.552Z,11.60
2023-04-26T10:39:47.112Z,9.75
2023-04-26T10:42:32.146Z,13.60
2023-04-26T10:45:00.184Z,15.65
2023-04-26T10:47:36.399Z,8.20
2023-04-26T10:50:09.837Z,8.80
2023-04-26T10:53:04.067Z,6.40
2023-04-26T10:55:43.689Z,8.80
2023-04-26T10:58:35.432Z,8.43
2023-04-26T11:01:18.742Z,14.98
2023-04-26T11:03:58.738Z,9.05
2023-04-26T11:06:29.717Z,7.88
2023-04-26T11:08:59.740Z,7.35
2023-04-26T11:11:29.205Z,8.45
2023-04-26T11:13:57.223Z,9.68
2023-04-26T11:16:29.005Z,9.70
2023-04-26T11:18:56.526Z,11.02
2023-04-26T11:21:23.736Z,8.55
2023-04-26T11:23:55.255Z,9.98
2023-04-26T11:26:22.606Z,10.48
2023-04-26T11:28:49.771Z,9.02
2023-04-26T11:31:18.985Z,8.55
2023-04-26T11:33:49.121Z,12.27
2023-04-26T11:36:19.564Z,9.45
2023-04-26T11:38:47.002Z,10.68
2023-04-26T11:41:14.177Z,5.53
2023-04-26T11:43:41.811Z,8.15
2023-04-26T11:46:10.139Z,9.70
2023-04-26T11:48:39.265Z,9.23
2023-04-26T11:51:08.291Z,6.88
2023-04-26T11:53:38.247Z,7.78
2023-04-26T11:56:18.043Z,7.45
2023-04-26T11:58:51.382Z,8.93
2023-04-26T12:01:27.426Z,10.43
2023-04-26T12:03:58.086Z,8.43
2023-04-26T12:06:46.342Z,9.73
2023-04-26T12:09:13.964Z,11.32
2023-04-26T12:11:41.235Z,9.88
2023-04-26T12:14:09.927Z,9.27
2023-04-26T12:16:37.324Z,9.13
2023-04-26T12:19:09.632Z,8.25
2023-04-26T12:21:44.197Z,16.97
2023-04-26T12:24:36.641Z,10.48
2023-04-26T12:27:08.584Z,14.20
2023-04-26T12:29:35.921Z,8.98
2023-04-26T12:32:04.855Z,10.57
2023-04-26T12:34:32.102Z,6.10
2023-04-26T12:36:59.284Z,12.57
2023-04-26T12:39:26.521Z,8.00
2023-04-26T12:41:55.062Z,8.45
2023-04-26T12:44:22.787Z,7.82
2023-04-26T12:46:51.282Z,4.03
2023-04-26T12:49:18.501Z,4.00
2023-04-26T12:51:46.145Z,5.45
2023-04-26T12:54:13.472Z,6.63
2023-04-26T12:56:44.230Z,5.88
2023-04-26T12:59:11.563Z,9.20
2023-04-26T13:01:38.838Z,7.85
2023-04-26T13:04:06.642Z,8.40
2023-04-26T13:06:35.836Z,10.80
2023-04-26T13:09:03.326Z,8.98
2023-04-26T13:11:30.810Z,8.85
2023-04-26T13:13:58.016Z,10.23
2023-04-26T13:16:26.425Z,12.20
2023-04-26T13:18:54.338Z,11.95
2023-04-26T13:21:21.701Z,11.20
2023-04-26T13:23:48.856Z,7.28
2023-04-26T13:26:18.319Z,9.55
2023-04-26T13:28:45.576Z,11.90
2023-04-26T13:31:12.766Z,8.98
2023-04-26T13:33:40.009Z,6.35
2023-04-26T13:36:07.743Z,12.20
2023-04-26T13:38:35.029Z,13.00
2023-04-26T13:41:02.917Z,8.32
2023-04-26T13:43:30.065Z,7.30
2023-04-26T13:45:57.271Z,8.45
2023-04-26T13:48:24.502Z,5.28
2023-04-26T13:50:51.755Z,7.93
2023-04-26T13:53:22.070Z,8.70
2023-04-26T13:55:49.239Z,8.05
2023-04-26T13:58:16.580Z,8.90
2023-04-26T14:00:44.018Z,7.93
2023-04-26T14:03:11.416Z,8.00
2023-04-26T14:05:38.734Z,5.70
2023-04-26T14:08:06.004Z,12.35
2023-04-26T14:10:33.203Z,8.27
2023-04-26T14:13:00.380Z,6.07
2023-04-26T14:15:27.520Z,9.20
2023-04-26T14:17:54.740Z,7.70
2023-04-26T14:20:21.982Z,6.53
2023-04-26T14:22:50.215Z,7.88
2023-04-26T14:25:17.564Z,5.88
2023-04-26T14:27:44.778Z,8.93
2023-04-26T14:30:12.368Z,8.85
2023-04-26T14:32:39.701Z,9.75
2023-04-26T14:35:07.656Z,9.15
2023-04-26T14:37:34.815Z,6.63
2023-04-26T14:40:02.001Z,7.30
2023-04-26T14:42:29.432Z,12.38
2023-04-26T14:45:00.185Z,10.90
2023-04-26T14:47:27.466Z,10.95
2023-04-26T14:49:54.873Z,14.80
2023-04-26T14:52:26.750Z,8.70
2023-04-26T14:54:54.232Z,9.48
2023-04-26T14:57:21.474Z,8.98
2023-04-26T14:59:48.781Z,10.65
2023-04-26T15:02:16.048Z,7.35
2023-04-26T15:04:43.735Z,13.40
2023-04-26T15:07:18.027Z,10.68
2023-04-26T15:09:55.801Z,7.45
2023-04-26T15:12:23.162Z,11.90
2023-04-26T15:14:50.933Z,7.07
2023-04-26T15:17:18.076Z,9.50
2023-04-26T15:19:45.537Z,17.08
2023-04-26T15:22:12.707Z,8.82
2023-04-26T15:24:39.972Z,15.93
2023-04-26T15:27:07.123Z,15.77
2023-04-26T15:29:34.926Z,11.13
2023-04-26T15:32:02.167Z,8.57
2023-04-26T15:34:30.204Z,9.75
2023-04-26T15:37:00.232Z,8.77
2023-04-26T15:39:27.427Z,9.43
2023-04-26T15:41:54.634Z,6.82
2023-04-26T15:44:21.917Z,9.98
2023-04-26T15:46:49.070Z,7.78
2023-04-26T15:49:16.229Z,10.63
2023-04-26T15:51:43.744Z,9.00
2023-04-26T15:54:11.058Z,8.90
2023-04-26T15:56:38.206Z,8.02
2023-04-26T15:59:05.366Z,13.25
2023-04-26T16:01:32.541Z,6.25
2023-04-26T16:03:59.783Z,9.40
2023-04-26T16:06:28.501Z,13.80
2023-04-26T16:08:55.678Z,10.00
2023-04-26T16:11:23.194Z,11.63
2023-04-26T16:13:51.861Z,11.38
2023-04-26T16:16:19.464Z,9.07
2023-04-26T16:18:46.973Z,9.90
2023-04-26T16:21:14.097Z,10.75
2023-04-26T16:23:45.161Z,14.40
2023-04-26T16:26:12.462Z,17.10
2023-04-26T16:28:40.582Z,15.05
2023-04-26T16:31:07.753Z,15.70
2023-04-26T16:33:35.398Z,11.60
2023-04-26T16:36:02.547Z,9.27
2023-04-26T16:38:29.691Z,13.43
2023-04-26T16:40:58.706Z,9.52
2023-04-26T16:43:27.317Z,7.82
2023-04-26T16:46:06.091Z,7.93
2023-04-26T16:48:55.347Z,10.75
2023-04-26T16:51:26.592Z,11.60
2023-04-26T16:54:05.760Z,7.90
2023-04-26T16:56:33.177Z,8.32
2023-04-26T16:59:00.579Z,6.70
2023-04-26T17:01:28.553Z,4.85
2023-04-26T17:03:56.942Z,10.27
2023-04-26T17:06:25.170Z,6.72
2023-04-26T17:08:52.346Z,8.45
2023-04-26T17:11:20.053Z,10.98
2023-04-26T17:13:47.403Z,6.65
2023-04-26T17:16:14.585Z,6.50
2023-04-26T17:18:44.832Z,8.25
2023-04-26T17:21:12.102Z,8.68
2023-04-26T17:23:39.242Z,7.78
2023-04-26T17:26:06.918Z,10.25
2023-04-26T17:28:34.158Z,6.20
2023-04-26T17:31:01.315Z,7.22
2023-04-26T17:33:29.372Z,6.88
2023-04-26T17:35:56.824Z,9.05
2023-04-26T17:38:24.212Z,6.85
2023-04-26T17:40:54.217Z,8.02
2023-04-26T17:43:21.610Z,8.38
2023-04-26T17:45:51.187Z,7.78
2023-04-26T17:48:18.394Z,9.73
2023-04-26T17:50:45.768Z,7.63
2023-04-26T17:53:12.953Z,8.80
2023-04-26T17:55:43.445Z,9.10
2023-04-26T17:58:10.943Z,4.60
2023-04-26T18:00:38.107Z,5.38
2023-04-26T18:03:06.790Z,5.85
2023-04-26T18:05:34.149Z,4.10
2023-04-26T18:08:01.430Z,18.33
2023-04-26T18:10:28.614Z,10.23
2023-04-26T18:12:56.599Z,8.02
2023-04-26T18:15:24.175Z,8.30
2023-04-26T18:17:51.325Z,11.82
2023-04-26T18:20:18.542Z,9.38
2023-04-26T18:22:45.716Z,7.28
2023-04-26T18:25:12.978Z,7.25
2023-04-26T18:27:40.152Z,10.10
2023-04-26T18:30:08.782Z,7.43
2023-04-26T18:32:35.955Z,6.63
2023-04-26T18:35:06.153Z,8.80
2023-04-26T18:37:33.502Z,7.53
2023-04-26T18:40:00.970Z,6.10
2023-04-26T18:42:28.224Z,9.63
2023-04-26T18:44:56.500Z,8.57
2023-04-26T18:47:23.978Z,7.82
2023-04-26T18:49:51.141Z,12.20
2023-04-26T18:52:18.777Z,7.07
2023-04-26T18:54:46.201Z,6.47
2023-04-26T18:57:14.712Z,8.18
2023-04-26T18:59:42.010Z,6.70
2023-04-26T19:02:09.480Z,11.07
2023-04-26T19:04:36.881Z,35.97
2023-04-26T19:07:04.266Z,11.98
2023-04-26T19:09:46.614Z,8.45
2023-04-26T19:12:20.688Z,5.18
2023-04-26T19:14:47.952Z,9.05
2023-04-26T19:17:15.314Z,7.00
2023-04-26T19:19:42.437Z,11.18
2023-04-26T19:22:09.584Z,25.88
2023-04-26T19:24:36.831Z,12.55
2023-04-26T19:27:04.568Z,13.73
2023-04-26T19:29:31.736Z,27.08
2023-04-26T19:31:59.968Z,31.27
2023-04-26T19:34:27.801Z,37.88
2023-04-26T19:36:55.079Z,23.75
2023-04-26T19:39:23.775Z,9.77
2023-04-26T19:41:51.279Z,9.35
2023-04-26T19:44:18.450Z,11.48
2023-04-26T19:46:46.191Z,8.85
2023-04-26T19:49:13.579Z,8.98
2023-04-26T19:51:40.824Z,12.98
2023-04-26T19:54:07.989Z,10.18
2023-04-26T19:56:35.159Z,14.40
2023-04-26T19:59:02.446Z,7.97
2023-04-26T20:01:29.876Z,10.30
2023-04-26T20:03:57.283Z,10.25
2023-04-26T20:06:24.571Z,11.15
2023-04-26T20:08:51.756Z,12.73
2023-04-26T20:11:19.250Z,6.32
2023-04-26T20:13:46.530Z,9.57
2023-04-26T20:16:13.791Z,14.05
2023-04-26T20:18:41.047Z,26.05
2023-04-26T20:21:08.333Z,11.13
2023-04-26T20:23:35.590Z,14.43
2023-04-26T20:26:02.992Z,12.55
2023-04-26T20:28:30.498Z,12.75
2023-04-26T20:30:57.687Z,13.90
2023-04-26T20:33:25.069Z,13.73
2023-04-26T20:35:53.185Z,9.15
2023-04-26T20:38:21.012Z,12.82
2023-04-26T20:40:48.765Z,13.13
2023-04-26T20:43:16.160Z,15.80
2023-04-26T20:45:43.406Z,13.77
2023-04-26T20:48:11.332Z,11.18
2023-04-26T20:50:38.849Z,9.00
2023-04-26T20:53:06.517Z,11.73
2023-04-26T20:55:33.850Z,7.63
2023-04-26T20:58:01.003Z,13.07
2023-04-26T21:00:28.262Z,12.50
2023-04-26T21:02:55.679Z,11.48
2023-04-26T21:05:24.083Z,11.23
2023-04-26T21:07:51.436Z,10.55
2023-04-26T21:10:18.770Z,9.55
2023-04-26T21:12:45.911Z,8.68
2023-04-26T21:15:13.122Z,13.40
2023-04-26T21:17:40.975Z,9.40
2023-04-26T21:20:08.716Z,9.68
2023-04-26T21:22:35.941Z,11.48
2023-04-26T21:25:04.314Z,12.07
2023-04-26T21:27:31.694Z,7.55
2023-04-26T21:29:58.865Z,9.40
2023-04-26T21:32:26.093Z,6.28
2023-04-26T21:34:53.282Z,10.20
2023-04-26T21:37:20.455Z,7.57
2023-04-26T21:39:47.763Z,9.35
2023-04-26T21:42:15.560Z,9.02
2023-04-26T21:44:42.803Z,9.57
2023-04-26T21:47:10.139Z,12.45
2023-04-26T21:49:39.446Z,10.05
2023-04-26T21:52:06.691Z,9.68
2023-04-26T21:54:33.979Z,9.13
2023-04-26T21:57:01.492Z,12.60
2023-04-26T21:59:29.020Z,14.73
2023-04-26T22:01:56.356Z,6.50
2023-04-26T22:04:23.743Z,10.05
2023-04-26T22:06:51.474Z,10.27
2023-04-26T22:09:18.673Z,9.57
2023-04-26T22:11:46.620Z,9.30
2023-04-26T22:14:14.091Z,12.25
2023-04-26T22:16:41.761Z,10.45
2023-04-26T22:19:09.449Z,8.60
2023-04-26T22:21:37.121Z,9.95
2023-04-26T22:24:04.552Z,6.43
2023-04-26T22:26:31.735Z,13.15
2023-04-26T22:28:58.973Z,8.88
2023-04-26T22:31:26.181Z,11.38
2023-04-26T22:33:53.503Z,10.05
2023-04-26T22:36:21.048Z,9.45
2023-04-26T22:38:48.180Z,10.30
2023-04-26T22:41:15.377Z,10.50
2023-04-26T22:43:44.062Z,17.75
2023-04-26T22:46:11.618Z,8.70
2023-04-26T22:48:38.829Z,11.15
2023-04-26T22:51:06.519Z,10.80
2023-04-26T22:53:36.282Z,11.68
2023-04-26T22:56:04.532Z,12.73
2023-04-26T22:58:31.695Z,10.98
2023-04-26T23:00:58.897Z,11.15
2023-04-26T23:03:26.279Z,8.70
2023-04-26T23:05:53.557Z,12.02
2023-04-26T23:08:20.848Z,10.95
2023-04-26T23:10:48.202Z,7.10
2023-04-26T23:13:16.148Z,15.63
2023-04-26T23:15:43.322Z,10.93
2023-04-26T23:18:11.246Z,10.52
2023-04-26T23:20:38.412Z,10.70
2023-04-26T23:23:07.948Z,12.23
2023-04-26T23:25:35.234Z,11.25
2023-04-26T23:28:02.480Z,9.35
2023-04-26T23:30:29.952Z,8.07
2023-04-26T23:32:57.151Z,9.32
2023-04-26T23:35:24.531Z,8.18
2023-04-26T23:37:52.443Z,11.73
2023-04-26T23:40:19.817Z,8.80
2023-04-26T23:42:47.043Z,9.10
2023-04-26T23:45:14.199Z,12.43
2023-04-26T23:47:41.487Z,7.07
2023-04-26T23:50:09.265Z,8.02
2023-04-26T23:52:36.461Z,8.60
2023-04-26T23:55:03.841Z,11.38
2023-04-26T23:57:31.152Z,10.15
2023-04-26T23:59:58.352Z,9.85
